Ault, Kentucky
Current Conditions -  °F | °C
As of 7:10 PM on Thursday 27 Nov 2014 (Local Time) from KSYM Reporting Station
Unknown Precip Unknown Precip  
Wind Chill: 25°   Ceiling: 2300
Heat Index: 30°   Visibility: 8mi
Dew Point: 25°   Wind: 5mph
Humidity: 80%   Direction: 290°WNW
Pressure: 30.37"   Gusts: NA
Location:  38.3543°N, 83.1837°W
Report Text: KSYM 280010Z AUTO 29004KT 8SM -UP BKN023 BKN029 OVC044 M01/M04 A3037 RMK AO2
Loading
Personal Weather Stations






























Interactive Weather Map New forecast layout! Learn more

10-Day Weather Forecast

Advertisements
Track Severe Weather on mobile